BVX206A EGKK-EGPH
Flight info
| Callsign | BVX206A |
|---|---|
| Flight time | 1h 4m |
| Altitude | 36000 |
| Route | LAM L10 BPK UN601 RIBEL DCT INPIP |
| Aircraft | B738/M-SDE2E3FGHIRWXY/LB1 |
Departure
| Time | 2026-04-26 19:26 |
|---|---|
| Airport | London Gatwick Airport (EGKK) |
Arrival
| Time | 2026-04-26 20:31 |
|---|---|
| Airport | Edinburgh Airport (EGPH) |
| Time | Latitude | Longitude | Altitude | Speed | Heading |
|---|---|---|---|---|---|
| 2026-04-26 18:30 | 51.15483 | -0.16962 | 207 ft | 0 kts | 348° |
| 2026-04-26 19:07 | 51.15476 | -0.16960 | 205 ft | 3 kts | 348° |
| 2026-04-26 19:07 | 51.15450 | -0.16951 | 212 ft | 3 kts | 342° |
| 2026-04-26 19:07 | 51.15435 | -0.16932 | 217 ft | 3 kts | 268° |
| 2026-04-26 19:08 | 51.15438 | -0.16900 | 217 ft | 3 kts | 257° |
| 2026-04-26 19:08 | 51.15440 | -0.16886 | 216 ft | 0 kts | 257° |
| 2026-04-26 19:14 | 51.15439 | -0.16894 | 216 ft | 2 kts | 257° |
| 2026-04-26 19:14 | 51.15434 | -0.16927 | 211 ft | 3 kts | 257° |
| 2026-04-26 19:14 | 51.15431 | -0.16951 | 209 ft | 3 kts | 257° |
| 2026-04-26 19:15 | 51.15423 | -0.17011 | 203 ft | 5 kts | 257° |
| 2026-04-26 19:15 | 51.15414 | -0.17074 | 209 ft | 7 kts | 257° |
| 2026-04-26 19:15 | 51.15397 | -0.17149 | 210 ft | 8 kts | 243° |
| 2026-04-26 19:15 | 51.15378 | -0.17236 | 207 ft | 9 kts | 252° |
| 2026-04-26 19:16 | 51.15358 | -0.17333 | 212 ft | 9 kts | 246° |
| 2026-04-26 19:16 | 51.15317 | -0.17381 | 205 ft | 8 kts | 225° |
| 2026-04-26 19:16 | 51.15297 | -0.17462 | 206 ft | 9 kts | 259° |
| 2026-04-26 19:16 | 51.15286 | -0.17563 | 206 ft | 10 kts | 259° |
| 2026-04-26 19:17 | 51.15272 | -0.17674 | 207 ft | 11 kts | 259° |
| 2026-04-26 19:17 | 51.15254 | -0.17789 | 205 ft | 11 kts | 254° |
| 2026-04-26 19:17 | 51.15235 | -0.17917 | 203 ft | 12 kts | 258° |
| 2026-04-26 19:17 | 51.15218 | -0.18054 | 207 ft | 13 kts | 258° |
| 2026-04-26 19:18 | 51.15196 | -0.18200 | 207 ft | 14 kts | 257° |
| 2026-04-26 19:18 | 51.15183 | -0.18360 | 210 ft | 15 kts | 259° |
| 2026-04-26 19:18 | 51.15160 | -0.18527 | 212 ft | 16 kts | 260° |
| 2026-04-26 19:18 | 51.15135 | -0.18700 | 202 ft | 16 kts | 257° |
| 2026-04-26 19:19 | 51.15112 | -0.18871 | 214 ft | 15 kts | 257° |
| 2026-04-26 19:19 | 51.15089 | -0.19033 | 211 ft | 15 kts | 257° |
| 2026-04-26 19:19 | 51.15069 | -0.19176 | 208 ft | 12 kts | 257° |
| 2026-04-26 19:19 | 51.15052 | -0.19303 | 207 ft | 12 kts | 257° |
| 2026-04-26 19:20 | 51.15035 | -0.19426 | 207 ft | 11 kts | 257° |
| 2026-04-26 19:20 | 51.15024 | -0.19505 | 208 ft | 11 kts | 257° |
| 2026-04-26 19:20 | 51.15002 | -0.19661 | 208 ft | 11 kts | 257° |
| 2026-04-26 19:20 | 51.14987 | -0.19774 | 208 ft | 10 kts | 258° |
| 2026-04-26 19:21 | 51.14973 | -0.19884 | 207 ft | 10 kts | 256° |
| 2026-04-26 19:21 | 51.14957 | -0.19990 | 213 ft | 10 kts | 257° |
| 2026-04-26 19:21 | 51.14941 | -0.20104 | 212 ft | 12 kts | 257° |
| 2026-04-26 19:21 | 51.14923 | -0.20239 | 205 ft | 13 kts | 259° |
| 2026-04-26 19:22 | 51.14904 | -0.20373 | 202 ft | 13 kts | 257° |
| 2026-04-26 19:22 | 51.14884 | -0.20521 | 211 ft | 15 kts | 258° |
| 2026-04-26 19:22 | 51.14862 | -0.20684 | 202 ft | 15 kts | 258° |
| 2026-04-26 19:22 | 51.14840 | -0.20842 | 211 ft | 14 kts | 256° |
| 2026-04-26 19:23 | 51.14819 | -0.20990 | 206 ft | 14 kts | 258° |
| 2026-04-26 19:23 | 51.14797 | -0.21134 | 213 ft | 13 kts | 250° |
| 2026-04-26 19:23 | 51.14774 | -0.21268 | 203 ft | 13 kts | 259° |
| 2026-04-26 19:23 | 51.14754 | -0.21357 | 208 ft | 7 kts | 237° |
| 2026-04-26 19:24 | 51.14716 | -0.21396 | 205 ft | 7 kts | 179° |
| 2026-04-26 19:24 | 51.14670 | -0.21370 | 207 ft | 7 kts | 146° |
| 2026-04-26 19:24 | 51.14578 | -0.21312 | 207 ft | 8 kts | 160° |
| 2026-04-26 19:25 | 51.14534 | -0.21255 | 201 ft | 9 kts | 126° |
| 2026-04-26 19:25 | 51.14520 | -0.21192 | 207 ft | 9 kts | 94° |
| 2026-04-26 19:25 | 51.14533 | -0.21071 | 204 ft | 9 kts | 77° |
| 2026-04-26 19:25 | 51.14562 | -0.20861 | 203 ft | 43 kts | 78° |
| 2026-04-26 19:26 | 51.14674 | -0.20047 | 206 ft | 105 kts | 78° |
| 2026-04-26 19:26 | 51.14864 | -0.18648 | 218 ft | 150 kts | 78° |
| 2026-04-26 19:26 | 51.15067 | -0.16968 | 702 ft | 152 kts | 80° |
| 2026-04-26 19:26 | 51.15262 | -0.15336 | 1380 ft | 148 kts | 78° |
| 2026-04-26 19:27 | 51.15490 | -0.13763 | 2017 ft | 145 kts | 78° |
| 2026-04-26 19:27 | 51.15716 | -0.12211 | 2562 ft | 142 kts | 77° |
| 2026-04-26 19:27 | 51.15944 | -0.10640 | 2967 ft | 157 kts | 77° |
| 2026-04-26 19:27 | 51.16212 | -0.08807 | 3238 ft | 183 kts | 76° |
| 2026-04-26 19:28 | 51.16673 | -0.06776 | 3469 ft | 206 kts | 65° |
| 2026-04-26 19:28 | 51.17475 | -0.04766 | 3648 ft | 225 kts | 52° |
| 2026-04-26 19:28 | 51.18471 | -0.02759 | 3969 ft | 235 kts | 52° |
| 2026-04-26 19:28 | 51.19487 | -0.00689 | 4417 ft | 238 kts | 52° |
| 2026-04-26 19:29 | 51.20500 | 0.01388 | 4823 ft | 238 kts | 52° |
| 2026-04-26 19:29 | 51.21516 | 0.03483 | 4971 ft | 238 kts | 53° |
| 2026-04-26 19:29 | 51.22529 | 0.05581 | 4998 ft | 242 kts | 53° |
| 2026-04-26 19:29 | 51.23565 | 0.07728 | 4999 ft | 244 kts | 53° |
| 2026-04-26 19:30 | 51.24586 | 0.09861 | 4989 ft | 241 kts | 55° |
| 2026-04-26 19:30 | 51.25208 | 0.12257 | 5004 ft | 236 kts | 79° |
| 2026-04-26 19:30 | 51.25501 | 0.14891 | 4997 ft | 239 kts | 80° |
| 2026-04-26 19:30 | 51.25703 | 0.16635 | 4998 ft | 242 kts | 79° |
| 2026-04-26 19:31 | 51.26114 | 0.20146 | 4989 ft | 242 kts | 79° |
| 2026-04-26 19:31 | 51.26424 | 0.22775 | 4986 ft | 240 kts | 79° |
| 2026-04-26 19:31 | 51.26792 | 0.25368 | 4958 ft | 241 kts | 68° |
| 2026-04-26 19:31 | 51.27908 | 0.27334 | 5243 ft | 247 kts | 28° |
| 2026-04-26 19:32 | 51.29591 | 0.27796 | 5708 ft | 250 kts | 352° |
| 2026-04-26 19:32 | 51.31278 | 0.27138 | 6219 ft | 252 kts | 345° |
| 2026-04-26 19:32 | 51.32979 | 0.26443 | 6760 ft | 254 kts | 345° |
| 2026-04-26 19:32 | 51.34709 | 0.25754 | 7223 ft | 256 kts | 345° |
| 2026-04-26 19:33 | 51.36439 | 0.25082 | 7719 ft | 257 kts | 345° |
| 2026-04-26 19:33 | 51.38191 | 0.24419 | 8225 ft | 259 kts | 346° |
| 2026-04-26 19:33 | 51.39955 | 0.23760 | 8691 ft | 265 kts | 346° |
| 2026-04-26 19:33 | 51.41809 | 0.23065 | 8967 ft | 281 kts | 345° |
| 2026-04-26 19:34 | 51.43749 | 0.22349 | 9662 ft | 287 kts | 345° |
| 2026-04-26 19:34 | 51.45687 | 0.21654 | 10569 ft | 286 kts | 345° |
| 2026-04-26 19:34 | 51.47645 | 0.20959 | 11304 ft | 291 kts | 345° |
| 2026-04-26 19:34 | 51.49642 | 0.20256 | 12060 ft | 295 kts | 345° |
| 2026-04-26 19:35 | 51.51660 | 0.19551 | 12819 ft | 300 kts | 345° |
| 2026-04-26 19:35 | 51.53671 | 0.18861 | 13205 ft | 300 kts | 345° |
| 2026-04-26 19:35 | 51.55762 | 0.18153 | 13311 ft | 306 kts | 345° |
| 2026-04-26 19:35 | 51.57818 | 0.17462 | 13322 ft | 305 kts | 346° |
| 2026-04-26 19:36 | 51.59891 | 0.16756 | 13320 ft | 303 kts | 346° |
| 2026-04-26 19:36 | 51.60581 | 0.16518 | 13322 ft | 303 kts | 345° |
| 2026-04-26 19:36 | 51.64025 | 0.15328 | 13332 ft | 313 kts | 345° |
| 2026-04-26 19:36 | 51.66246 | 0.14546 | 13346 ft | 341 kts | 345° |
| 2026-04-26 19:37 | 51.68590 | 0.13712 | 13314 ft | 348 kts | 345° |
| 2026-04-26 19:37 | 51.70957 | 0.12867 | 13306 ft | 348 kts | 345° |
| 2026-04-26 19:37 | 51.73325 | 0.12020 | 13356 ft | 351 kts | 345° |
| 2026-04-26 19:37 | 51.75653 | 0.10809 | 14015 ft | 352 kts | 328° |
| 2026-04-26 19:38 | 51.77624 | 0.08543 | 14939 ft | 348 kts | 324° |
| 2026-04-26 19:38 | 51.79629 | 0.06325 | 15724 ft | 350 kts | 318° |
| 2026-04-26 19:38 | 51.81402 | 0.03629 | 16492 ft | 353 kts | 312° |
| 2026-04-26 19:38 | 51.83087 | 0.00705 | 17232 ft | 356 kts | 310° |
| 2026-04-26 19:39 | 51.84761 | -0.02270 | 17991 ft | 360 kts | 310° |
| 2026-04-26 19:39 | 51.86466 | -0.05273 | 18718 ft | 364 kts | 311° |
| 2026-04-26 19:39 | 51.88200 | -0.08277 | 19362 ft | 367 kts | 311° |
| 2026-04-26 19:39 | 51.89967 | -0.11299 | 20008 ft | 371 kts | 311° |
| 2026-04-26 19:40 | 51.91753 | -0.14330 | 20645 ft | 374 kts | 311° |
| 2026-04-26 19:40 | 51.93565 | -0.17391 | 21276 ft | 378 kts | 311° |
| 2026-04-26 19:40 | 51.95393 | -0.20476 | 21887 ft | 381 kts | 311° |
| 2026-04-26 19:40 | 51.97216 | -0.23556 | 22489 ft | 385 kts | 311° |
| 2026-04-26 19:41 | 51.99079 | -0.26705 | 23088 ft | 388 kts | 311° |
| 2026-04-26 19:41 | 52.00959 | -0.29888 | 23678 ft | 392 kts | 311° |
| 2026-04-26 19:41 | 52.02853 | -0.33099 | 24192 ft | 395 kts | 311° |
| 2026-04-26 19:41 | 52.03499 | -0.34194 | 24372 ft | 396 kts | 311° |
| 2026-04-26 19:42 | 52.06674 | -0.39586 | 25261 ft | 398 kts | 311° |
| 2026-04-26 19:42 | 52.08678 | -0.42707 | 25759 ft | 403 kts | 317° |
| 2026-04-26 19:42 | 52.11008 | -0.45316 | 26229 ft | 409 kts | 326° |
| 2026-04-26 19:42 | 52.13474 | -0.47651 | 26717 ft | 411 kts | 327° |
| 2026-04-26 19:43 | 52.15965 | -0.49986 | 27186 ft | 414 kts | 326° |
| 2026-04-26 19:43 | 52.18458 | -0.52363 | 27631 ft | 416 kts | 326° |
| 2026-04-26 19:43 | 52.20954 | -0.54781 | 28079 ft | 418 kts | 325° |
| 2026-04-26 19:43 | 52.23459 | -0.57226 | 28514 ft | 420 kts | 325° |
| 2026-04-26 19:44 | 52.25972 | -0.59682 | 28940 ft | 423 kts | 325° |
| 2026-04-26 19:44 | 52.28500 | -0.62154 | 29383 ft | 425 kts | 325° |
| 2026-04-26 19:44 | 52.30184 | -0.63800 | 29685 ft | 426 kts | 325° |
| 2026-04-26 19:44 | 52.32730 | -0.66291 | 30123 ft | 427 kts | 325° |
| 2026-04-26 19:45 | 52.35288 | -0.68797 | 30497 ft | 430 kts | 325° |
| 2026-04-26 19:45 | 52.38703 | -0.72151 | 30867 ft | 433 kts | 325° |
| 2026-04-26 19:45 | 52.41300 | -0.74706 | 31161 ft | 436 kts | 325° |
| 2026-04-26 19:45 | 52.43905 | -0.77272 | 31443 ft | 438 kts | 325° |
| 2026-04-26 19:46 | 52.45676 | -0.79018 | 31643 ft | 440 kts | 325° |
| 2026-04-26 19:46 | 52.48264 | -0.81572 | 32013 ft | 439 kts | 325° |
| 2026-04-26 19:46 | 52.50877 | -0.84155 | 32455 ft | 438 kts | 324° |
| 2026-04-26 19:46 | 52.53477 | -0.86727 | 32894 ft | 436 kts | 324° |
| 2026-04-26 19:47 | 52.56077 | -0.89306 | 33280 ft | 436 kts | 324° |
| 2026-04-26 19:47 | 52.57828 | -0.91044 | 33522 ft | 436 kts | 324° |
| 2026-04-26 19:47 | 52.61267 | -0.94461 | 34001 ft | 436 kts | 324° |
| 2026-04-26 19:47 | 52.63862 | -0.97035 | 34375 ft | 435 kts | 324° |
| 2026-04-26 19:48 | 52.66457 | -0.99605 | 34699 ft | 435 kts | 324° |
| 2026-04-26 19:48 | 52.69053 | -1.02178 | 34950 ft | 436 kts | 324° |
| 2026-04-26 19:48 | 52.71658 | -1.04766 | 35169 ft | 438 kts | 324° |
| 2026-04-26 19:48 | 52.74270 | -1.07366 | 35510 ft | 437 kts | 324° |
| 2026-04-26 19:49 | 52.76858 | -1.09955 | 35884 ft | 435 kts | 324° |
| 2026-04-26 19:49 | 52.79448 | -1.12557 | 36216 ft | 434 kts | 324° |
| 2026-04-26 19:49 | 52.84656 | -1.17815 | 36294 ft | 442 kts | 324° |
| 2026-04-26 19:50 | 52.89894 | -1.23104 | 36289 ft | 437 kts | 324° |
| 2026-04-26 19:50 | 52.95049 | -1.28323 | 36293 ft | 433 kts | 324° |
| 2026-04-26 19:51 | 53.00188 | -1.33539 | 36314 ft | 434 kts | 324° |
| 2026-04-26 19:51 | 53.05322 | -1.38752 | 36298 ft | 435 kts | 324° |
| 2026-04-26 19:52 | 53.10492 | -1.44017 | 36290 ft | 436 kts | 323° |
| 2026-04-26 19:52 | 53.15668 | -1.49303 | 36287 ft | 436 kts | 323° |
| 2026-04-26 19:53 | 53.20849 | -1.54611 | 36299 ft | 437 kts | 323° |
| 2026-04-26 19:53 | 53.26025 | -1.59932 | 36329 ft | 436 kts | 324° |
| 2026-04-26 19:54 | 53.31163 | -1.65223 | 36278 ft | 436 kts | 323° |
| 2026-04-26 19:54 | 53.36300 | -1.70518 | 36283 ft | 433 kts | 323° |
| 2026-04-26 19:55 | 53.41415 | -1.75811 | 36274 ft | 431 kts | 323° |
| 2026-04-26 19:55 | 53.46502 | -1.81089 | 36280 ft | 429 kts | 323° |
| 2026-04-26 19:56 | 53.51573 | -1.86378 | 36284 ft | 429 kts | 323° |
| 2026-04-26 19:56 | 53.56649 | -1.91691 | 36282 ft | 430 kts | 323° |
| 2026-04-26 19:57 | 53.61730 | -1.97018 | 36287 ft | 431 kts | 323° |
| 2026-04-26 19:57 | 53.66839 | -2.02361 | 36282 ft | 433 kts | 323° |
| 2026-04-26 19:58 | 53.71968 | -2.07738 | 36291 ft | 435 kts | 323° |
| 2026-04-26 19:58 | 53.77346 | -2.12553 | 36296 ft | 443 kts | 333° |
| 2026-04-26 19:59 | 53.83117 | -2.16318 | 36284 ft | 445 kts | 333° |
| 2026-04-26 19:59 | 53.88868 | -2.20248 | 36285 ft | 446 kts | 333° |
| 2026-04-26 20:00 | 53.94586 | -2.24176 | 36292 ft | 446 kts | 333° |
| 2026-04-26 20:00 | 54.00335 | -2.28125 | 36304 ft | 445 kts | 333° |
| 2026-04-26 20:01 | 54.06037 | -2.32049 | 36300 ft | 439 kts | 333° |
| 2026-04-26 20:01 | 54.11719 | -2.35974 | 36310 ft | 442 kts | 333° |
| 2026-04-26 20:02 | 54.17434 | -2.39936 | 36304 ft | 445 kts | 333° |
| 2026-04-26 20:02 | 54.22199 | -2.43246 | 36332 ft | 446 kts | 333° |
| 2026-04-26 20:03 | 54.28896 | -2.47907 | 36295 ft | 438 kts | 333° |
| 2026-04-26 20:03 | 54.31687 | -2.49848 | 36207 ft | 425 kts | 332° |
| 2026-04-26 20:03 | 54.34364 | -2.51714 | 35879 ft | 417 kts | 332° |
| 2026-04-26 20:04 | 54.37075 | -2.53609 | 35151 ft | 416 kts | 332° |
| 2026-04-26 20:04 | 54.39719 | -2.55469 | 34382 ft | 416 kts | 331° |
| 2026-04-26 20:04 | 54.42396 | -2.57356 | 33611 ft | 414 kts | 332° |
| 2026-04-26 20:04 | 54.45042 | -2.59219 | 32962 ft | 409 kts | 332° |
| 2026-04-26 20:05 | 54.47659 | -2.61061 | 32415 ft | 405 kts | 332° |
| 2026-04-26 20:05 | 54.50258 | -2.62895 | 31974 ft | 403 kts | 332° |
| 2026-04-26 20:05 | 54.52847 | -2.64724 | 31588 ft | 400 kts | 332° |
| 2026-04-26 20:05 | 54.55405 | -2.66534 | 31205 ft | 397 kts | 332° |
| 2026-04-26 20:06 | 54.57954 | -2.68340 | 30846 ft | 394 kts | 332° |
| 2026-04-26 20:06 | 54.60482 | -2.70133 | 30480 ft | 392 kts | 332° |
| 2026-04-26 20:06 | 54.62992 | -2.71917 | 30080 ft | 389 kts | 332° |
| 2026-04-26 20:06 | 54.65491 | -2.73694 | 29658 ft | 386 kts | 332° |
| 2026-04-26 20:07 | 54.67965 | -2.75456 | 29274 ft | 383 kts | 332° |
| 2026-04-26 20:07 | 54.70425 | -2.77210 | 28898 ft | 380 kts | 333° |
| 2026-04-26 20:07 | 54.72864 | -2.78952 | 28545 ft | 378 kts | 332° |
| 2026-04-26 20:07 | 54.75281 | -2.80681 | 28145 ft | 375 kts | 333° |
| 2026-04-26 20:08 | 54.77693 | -2.82408 | 27778 ft | 373 kts | 333° |
| 2026-04-26 20:08 | 54.80082 | -2.84121 | 27403 ft | 370 kts | 333° |
| 2026-04-26 20:08 | 54.82448 | -2.85819 | 27039 ft | 367 kts | 333° |
| 2026-04-26 20:08 | 54.84800 | -2.87509 | 26674 ft | 364 kts | 333° |
| 2026-04-26 20:09 | 54.87130 | -2.89184 | 26328 ft | 361 kts | 333° |
| 2026-04-26 20:09 | 54.89449 | -2.90858 | 25854 ft | 362 kts | 333° |
| 2026-04-26 20:09 | 54.91771 | -2.92541 | 25361 ft | 363 kts | 334° |
| 2026-04-26 20:09 | 54.94107 | -2.94236 | 24864 ft | 364 kts | 334° |
| 2026-04-26 20:10 | 54.96436 | -2.95927 | 24352 ft | 360 kts | 334° |
| 2026-04-26 20:10 | 54.98756 | -2.97613 | 23870 ft | 362 kts | 334° |
| 2026-04-26 20:10 | 55.01056 | -2.99288 | 23277 ft | 363 kts | 334° |
| 2026-04-26 20:10 | 55.03413 | -3.01005 | 22732 ft | 363 kts | 334° |
| 2026-04-26 20:11 | 55.05712 | -3.02682 | 22241 ft | 362 kts | 334° |
| 2026-04-26 20:11 | 55.08032 | -3.04377 | 21718 ft | 361 kts | 334° |
| 2026-04-26 20:11 | 55.10326 | -3.06052 | 21212 ft | 353 kts | 334° |
| 2026-04-26 20:12 | 55.14746 | -3.09288 | 20252 ft | 336 kts | 334° |
| 2026-04-26 20:12 | 55.16888 | -3.10858 | 19742 ft | 331 kts | 334° |
| 2026-04-26 20:12 | 55.18992 | -3.12401 | 19247 ft | 326 kts | 334° |
| 2026-04-26 20:12 | 55.21066 | -3.13924 | 18762 ft | 321 kts | 334° |
| 2026-04-26 20:13 | 55.23117 | -3.15431 | 18249 ft | 317 kts | 334° |
| 2026-04-26 20:13 | 55.25144 | -3.16922 | 17724 ft | 313 kts | 334° |
| 2026-04-26 20:13 | 55.27138 | -3.18390 | 17205 ft | 309 kts | 334° |
| 2026-04-26 20:13 | 55.29121 | -3.19816 | 16723 ft | 306 kts | 338° |
| 2026-04-26 20:14 | 55.31232 | -3.20306 | 16271 ft | 310 kts | 360° |
| 2026-04-26 20:14 | 55.33360 | -3.20026 | 15815 ft | 312 kts | 2° |
| 2026-04-26 20:14 | 55.35525 | -3.19665 | 15325 ft | 315 kts | 2° |
| 2026-04-26 20:14 | 55.37739 | -3.19284 | 14847 ft | 323 kts | 2° |
| 2026-04-26 20:15 | 55.39992 | -3.18902 | 14345 ft | 327 kts | 2° |
| 2026-04-26 20:15 | 55.42264 | -3.18525 | 13798 ft | 328 kts | 3° |
| 2026-04-26 20:15 | 55.44513 | -3.18158 | 13240 ft | 322 kts | 2° |
| 2026-04-26 20:15 | 55.46732 | -3.17801 | 12726 ft | 317 kts | 2° |
| 2026-04-26 20:16 | 55.48905 | -3.17456 | 12244 ft | 312 kts | 2° |
| 2026-04-26 20:16 | 55.51049 | -3.17117 | 11766 ft | 307 kts | 2° |
| 2026-04-26 20:16 | 55.53162 | -3.16784 | 11292 ft | 302 kts | 2° |
| 2026-04-26 20:16 | 55.55245 | -3.16456 | 10825 ft | 298 kts | 2° |
| 2026-04-26 20:17 | 55.57297 | -3.16133 | 10363 ft | 295 kts | 2° |
| 2026-04-26 20:17 | 55.59323 | -3.15814 | 9899 ft | 291 kts | 2° |
| 2026-04-26 20:17 | 55.61336 | -3.15498 | 9409 ft | 289 kts | 2° |
| 2026-04-26 20:17 | 55.62655 | -3.15291 | 9111 ft | 286 kts | 2° |
| 2026-04-26 20:18 | 55.65277 | -3.14875 | 8551 ft | 276 kts | 2° |
| 2026-04-26 20:18 | 55.67151 | -3.14575 | 8121 ft | 266 kts | 2° |
| 2026-04-26 20:18 | 55.68967 | -3.14301 | 7705 ft | 257 kts | 359° |
| 2026-04-26 20:18 | 55.70654 | -3.14902 | 7319 ft | 241 kts | 328° |
| 2026-04-26 20:19 | 55.71846 | -3.16761 | 7202 ft | 218 kts | 306° |
| 2026-04-26 20:19 | 55.72558 | -3.19030 | 6999 ft | 212 kts | 288° |
| 2026-04-26 20:19 | 55.72999 | -3.21536 | 6691 ft | 212 kts | 284° |
| 2026-04-26 20:19 | 55.73385 | -3.24024 | 6509 ft | 205 kts | 283° |
| 2026-04-26 20:20 | 55.73756 | -3.26443 | 6405 ft | 202 kts | 283° |
| 2026-04-26 20:20 | 55.74054 | -3.28901 | 6304 ft | 206 kts | 279° |
| 2026-04-26 20:20 | 55.74273 | -3.31431 | 6121 ft | 208 kts | 273° |
| 2026-04-26 20:20 | 55.74306 | -3.33991 | 5940 ft | 206 kts | 270° |
| 2026-04-26 20:21 | 55.74308 | -3.36539 | 5754 ft | 207 kts | 270° |
| 2026-04-26 20:21 | 55.74311 | -3.39084 | 5565 ft | 206 kts | 270° |
| 2026-04-26 20:21 | 55.74312 | -3.41605 | 5393 ft | 203 kts | 270° |
| 2026-04-26 20:21 | 55.74315 | -3.44109 | 5188 ft | 203 kts | 269° |
| 2026-04-26 20:22 | 55.74320 | -3.46611 | 5001 ft | 201 kts | 269° |
| 2026-04-26 20:22 | 55.74329 | -3.49041 | 4788 ft | 192 kts | 270° |
| 2026-04-26 20:22 | 55.74361 | -3.51364 | 4569 ft | 184 kts | 277° |
| 2026-04-26 20:22 | 55.74672 | -3.53517 | 4362 ft | 176 kts | 284° |
| 2026-04-26 20:23 | 55.74990 | -3.55548 | 4160 ft | 170 kts | 284° |
| 2026-04-26 20:23 | 55.75297 | -3.57553 | 4030 ft | 169 kts | 283° |
| 2026-04-26 20:23 | 55.75603 | -3.59569 | 3996 ft | 170 kts | 283° |
| 2026-04-26 20:23 | 55.75911 | -3.61582 | 3982 ft | 167 kts | 283° |
| 2026-04-26 20:24 | 55.76214 | -3.63556 | 3972 ft | 165 kts | 283° |
| 2026-04-26 20:24 | 55.76516 | -3.65528 | 3984 ft | 167 kts | 283° |
| 2026-04-26 20:24 | 55.76820 | -3.67528 | 3977 ft | 168 kts | 284° |
| 2026-04-26 20:24 | 55.77122 | -3.69525 | 3974 ft | 166 kts | 283° |
| 2026-04-26 20:25 | 55.77423 | -3.71507 | 3983 ft | 166 kts | 283° |
| 2026-04-26 20:25 | 55.77705 | -3.72766 | 3952 ft | 168 kts | 303° |
| 2026-04-26 20:25 | 55.79066 | -3.73928 | 3970 ft | 173 kts | 3° |
| 2026-04-26 20:25 | 55.80188 | -3.73134 | 4003 ft | 179 kts | 27° |
| 2026-04-26 20:26 | 55.81283 | -3.71987 | 3989 ft | 183 kts | 27° |
| 2026-04-26 20:26 | 55.82385 | -3.70823 | 3983 ft | 183 kts | 29° |
| 2026-04-26 20:26 | 55.83475 | -3.69676 | 3979 ft | 181 kts | 28° |
| 2026-04-26 20:26 | 55.84428 | -3.68295 | 3960 ft | 180 kts | 53° |
| 2026-04-26 20:27 | 55.85142 | -3.66391 | 3751 ft | 185 kts | 57° |
| 2026-04-26 20:27 | 55.85820 | -3.64470 | 3516 ft | 182 kts | 58° |
| 2026-04-26 20:27 | 55.86472 | -3.62554 | 3265 ft | 179 kts | 59° |
| 2026-04-26 20:27 | 55.87110 | -3.60658 | 3020 ft | 179 kts | 58° |
| 2026-04-26 20:28 | 55.87749 | -3.58756 | 2780 ft | 178 kts | 59° |
| 2026-04-26 20:28 | 55.88378 | -3.56885 | 2551 ft | 174 kts | 59° |
| 2026-04-26 20:28 | 55.88997 | -3.55044 | 2303 ft | 172 kts | 59° |
| 2026-04-26 20:28 | 55.89606 | -3.53232 | 2075 ft | 170 kts | 59° |
| 2026-04-26 20:29 | 55.90215 | -3.51424 | 1844 ft | 169 kts | 59° |
| 2026-04-26 20:29 | 55.90816 | -3.49637 | 1604 ft | 168 kts | 59° |
| 2026-04-26 20:29 | 55.91416 | -3.47858 | 1379 ft | 167 kts | 59° |
| 2026-04-26 20:29 | 55.92000 | -3.46126 | 1138 ft | 156 kts | 59° |
| 2026-04-26 20:30 | 55.92524 | -3.44573 | 965 ft | 139 kts | 59° |
| 2026-04-26 20:30 | 55.93009 | -3.43133 | 748 ft | 134 kts | 58° |
| 2026-04-26 20:30 | 55.93478 | -3.41744 | 547 ft | 128 kts | 59° |
| 2026-04-26 20:30 | 55.93968 | -3.40284 | 411 ft | 150 kts | 58° |
| 2026-04-26 20:31 | 55.94526 | -3.38657 | 170 ft | 153 kts | 57° |
| 2026-04-26 20:31 | 55.95022 | -3.37198 | 110 ft | 99 kts | 60° |
| 2026-04-26 20:31 | 55.95200 | -3.36668 | 111 ft | 24 kts | 58° |
| 2026-04-26 20:31 | 55.95258 | -3.36476 | 110 ft | 11 kts | 81° |
| 2026-04-26 20:32 | 55.95214 | -3.36372 | 113 ft | 11 kts | 147° |
| 2026-04-26 20:32 | 55.95173 | -3.36330 | 112 ft | 4 kts | 150° |
| 2026-04-26 20:32 | 55.95165 | -3.36321 | 113 ft | 0 kts | 149° |
| 2026-04-26 20:33 | 55.95152 | -3.36316 | 114 ft | 6 kts | 172° |
| 2026-04-26 20:33 | 55.95103 | -3.36376 | 113 ft | 10 kts | 236° |
| 2026-04-26 20:33 | 55.95080 | -3.36450 | 113 ft | 10 kts | 240° |
| 2026-04-26 20:34 | 55.95042 | -3.36558 | 114 ft | 10 kts | 237° |
| 2026-04-26 20:34 | 55.95005 | -3.36661 | 115 ft | 10 kts | 237° |
| 2026-04-26 20:34 | 55.94969 | -3.36761 | 114 ft | 9 kts | 237° |
| 2026-04-26 20:34 | 55.94926 | -3.36822 | 114 ft | 8 kts | 179° |
| 2026-04-26 20:35 | 55.94856 | -3.36781 | 114 ft | 8 kts | 178° |
| 2026-04-26 20:35 | 55.94819 | -3.36779 | 115 ft | 8 kts | 177° |
| 2026-04-26 20:35 | 55.94770 | -3.36763 | 115 ft | 6 kts | 154° |
| 2026-04-26 20:35 | 55.94757 | -3.36747 | 114 ft | 1 kts | 136° |
| 2026-04-26 20:36 | 55.94753 | -3.36734 | 112 ft | 1 kts | 120° |
| 2026-04-26 20:36 | 55.94750 | -3.36720 | 114 ft | 1 kts | 107° |
| 2026-04-26 20:36 | 55.94751 | -3.36703 | 113 ft | 1 kts | 83° |
| 2026-04-26 20:36 | 55.94752 | -3.36684 | 114 ft | 2 kts | 86° |
| 2026-04-26 20:37 | 55.94752 | -3.36661 | 115 ft | 2 kts | 91° |
| 2026-04-26 20:37 | 55.94752 | -3.36635 | 115 ft | 1 kts | 90° |
| 2026-04-26 20:37 | 55.94752 | -3.36626 | 115 ft | 0 kts | 90° |